AAL152 KOMA-KSTL
Flight info
| Callsign | AAL152 |
|---|---|
| Flight time | 0h 53m |
| Altitude | 25000 |
| Route | LMN IRK LORLE3 |
| Aircraft | B77W/H-SDE1E2E3FGHIJ2J3J4J5M1RWXY/LB1D1 |
Departure
| Time | 2026-04-27 04:16 |
|---|---|
| Airport | Eppley Airfield (KOMA) |
Arrival
| Time | 2026-04-27 05:09 |
|---|---|
| Airport | St. Louis Lambert International Airport (KSTL) |
| Time | Latitude | Longitude | Altitude | Speed | Heading |
|---|---|---|---|---|---|
| 2026-04-27 03:41 | 41.29778 | -95.89753 | 989 ft | 0 kts | 264° |
| 2026-04-27 04:03 | 41.29779 | -95.89741 | 989 ft | 2 kts | 268° |
| 2026-04-27 04:04 | 41.29778 | -95.89722 | 990 ft | 2 kts | 290° |
| 2026-04-27 04:04 | 41.29771 | -95.89703 | 990 ft | 2 kts | 307° |
| 2026-04-27 04:04 | 41.29761 | -95.89689 | 990 ft | 2 kts | 324° |
| 2026-04-27 04:04 | 41.29748 | -95.89679 | 990 ft | 2 kts | 341° |
| 2026-04-27 04:05 | 41.29734 | -95.89674 | 990 ft | 1 kts | 357° |
| 2026-04-27 04:05 | 41.29729 | -95.89674 | 990 ft | 0 kts | 360° |
| 2026-04-27 04:08 | 41.29731 | -95.89674 | 990 ft | 0 kts | 360° |
| 2026-04-27 04:08 | 41.29749 | -95.89671 | 990 ft | 4 kts | 15° |
| 2026-04-27 04:08 | 41.29790 | -95.89642 | 990 ft | 8 kts | 29° |
| 2026-04-27 04:09 | 41.29858 | -95.89607 | 990 ft | 12 kts | 8° |
| 2026-04-27 04:09 | 41.29959 | -95.89603 | 990 ft | 16 kts | 359° |
| 2026-04-27 04:09 | 41.30071 | -95.89606 | 990 ft | 15 kts | 0° |
| 2026-04-27 04:09 | 41.30171 | -95.89638 | 990 ft | 14 kts | 330° |
| 2026-04-27 04:10 | 41.30260 | -95.89720 | 990 ft | 15 kts | 324° |
| 2026-04-27 04:10 | 41.30357 | -95.89812 | 990 ft | 19 kts | 324° |
| 2026-04-27 04:10 | 41.30478 | -95.89926 | 990 ft | 23 kts | 324° |
| 2026-04-27 04:10 | 41.30611 | -95.90053 | 993 ft | 19 kts | 324° |
| 2026-04-27 04:11 | 41.30729 | -95.90165 | 994 ft | 22 kts | 324° |
| 2026-04-27 04:11 | 41.30843 | -95.90273 | 994 ft | 13 kts | 324° |
| 2026-04-27 04:11 | 41.30919 | -95.90346 | 994 ft | 13 kts | 324° |
| 2026-04-27 04:11 | 41.31002 | -95.90428 | 994 ft | 13 kts | 323° |
| 2026-04-27 04:12 | 41.31079 | -95.90499 | 994 ft | 12 kts | 325° |
| 2026-04-27 04:12 | 41.31144 | -95.90560 | 994 ft | 12 kts | 324° |
| 2026-04-27 04:12 | 41.31221 | -95.90633 | 994 ft | 7 kts | 324° |
| 2026-04-27 04:12 | 41.31270 | -95.90681 | 994 ft | 9 kts | 324° |
| 2026-04-27 04:13 | 41.31330 | -95.90665 | 994 ft | 9 kts | 49° |
| 2026-04-27 04:13 | 41.31338 | -95.90582 | 994 ft | 10 kts | 120° |
| 2026-04-27 04:13 | 41.31311 | -95.90546 | 994 ft | 0 kts | 141° |
| 2026-04-27 04:14 | 41.31311 | -95.90545 | 994 ft | 0 kts | 141° |
| 2026-04-27 04:15 | 41.31292 | -95.90525 | 994 ft | 14 kts | 142° |
| 2026-04-27 04:15 | 41.31076 | -95.90317 | 994 ft | 64 kts | 144° |
| 2026-04-27 04:15 | 41.30572 | -95.89836 | 992 ft | 114 kts | 144° |
| 2026-04-27 04:15 | 41.29807 | -95.89107 | 994 ft | 156 kts | 144° |
| 2026-04-27 04:16 | 41.28843 | -95.88187 | 1171 ft | 174 kts | 140° |
| 2026-04-27 04:16 | 41.28055 | -95.86995 | 1607 ft | 183 kts | 121° |
| 2026-04-27 04:16 | 41.27484 | -95.85370 | 2068 ft | 201 kts | 112° |
| 2026-04-27 04:16 | 41.27061 | -95.83643 | 2801 ft | 198 kts | 111° |
| 2026-04-27 04:17 | 41.26968 | -95.83254 | 2879 ft | 202 kts | 112° |
| 2026-04-27 04:17 | 41.26810 | -95.82614 | 2963 ft | 213 kts | 113° |
| 2026-04-27 04:17 | 41.26276 | -95.80634 | 3141 ft | 245 kts | 108° |
| 2026-04-27 04:18 | 41.25860 | -95.78277 | 3507 ft | 273 kts | 106° |
| 2026-04-27 04:18 | 41.25298 | -95.75899 | 4421 ft | 272 kts | 119° |
| 2026-04-27 04:18 | 41.24438 | -95.73682 | 5295 ft | 276 kts | 121° |
| 2026-04-27 04:18 | 41.23626 | -95.71342 | 6162 ft | 281 kts | 120° |
| 2026-04-27 04:19 | 41.22784 | -95.69007 | 7013 ft | 285 kts | 120° |
| 2026-04-27 04:19 | 41.21937 | -95.66623 | 7819 ft | 291 kts | 120° |
| 2026-04-27 04:19 | 41.21074 | -95.64197 | 8620 ft | 297 kts | 121° |
| 2026-04-27 04:19 | 41.20190 | -95.61718 | 9422 ft | 302 kts | 121° |
| 2026-04-27 04:20 | 41.19301 | -95.59223 | 10143 ft | 300 kts | 121° |
| 2026-04-27 04:20 | 41.18380 | -95.56655 | 10223 ft | 319 kts | 121° |
| 2026-04-27 04:20 | 41.17398 | -95.53929 | 10255 ft | 338 kts | 120° |
| 2026-04-27 04:20 | 41.16367 | -95.51041 | 10342 ft | 354 kts | 120° |
| 2026-04-27 04:21 | 41.15304 | -95.48071 | 10743 ft | 359 kts | 120° |
| 2026-04-27 04:21 | 41.14242 | -95.45092 | 11280 ft | 358 kts | 120° |
| 2026-04-27 04:21 | 41.13172 | -95.42105 | 11740 ft | 361 kts | 120° |
| 2026-04-27 04:21 | 41.12090 | -95.39100 | 12137 ft | 364 kts | 120° |
| 2026-04-27 04:22 | 41.10986 | -95.36021 | 12574 ft | 368 kts | 120° |
| 2026-04-27 04:22 | 41.09902 | -95.33008 | 13050 ft | 368 kts | 121° |
| 2026-04-27 04:22 | 41.08784 | -95.29903 | 13457 ft | 372 kts | 121° |
| 2026-04-27 04:22 | 41.07673 | -95.26819 | 13837 ft | 375 kts | 121° |
| 2026-04-27 04:23 | 41.06536 | -95.23682 | 14246 ft | 377 kts | 121° |
| 2026-04-27 04:23 | 41.05418 | -95.20576 | 14631 ft | 380 kts | 120° |
| 2026-04-27 04:23 | 41.04272 | -95.17423 | 15036 ft | 382 kts | 120° |
| 2026-04-27 04:23 | 41.03127 | -95.14247 | 15374 ft | 385 kts | 120° |
| 2026-04-27 04:24 | 41.01963 | -95.11038 | 15713 ft | 388 kts | 120° |
| 2026-04-27 04:24 | 41.00792 | -95.07822 | 16029 ft | 392 kts | 120° |
| 2026-04-27 04:24 | 40.99620 | -95.04590 | 16437 ft | 392 kts | 121° |
| 2026-04-27 04:24 | 40.98424 | -95.01305 | 16820 ft | 394 kts | 120° |
| 2026-04-27 04:25 | 40.97244 | -94.98065 | 17096 ft | 398 kts | 120° |
| 2026-04-27 04:25 | 40.96027 | -94.94729 | 17444 ft | 400 kts | 120° |
| 2026-04-27 04:25 | 40.94831 | -94.91454 | 17735 ft | 403 kts | 121° |
| 2026-04-27 04:25 | 40.93602 | -94.88078 | 18080 ft | 405 kts | 120° |
| 2026-04-27 04:26 | 40.92374 | -94.84737 | 18417 ft | 407 kts | 121° |
| 2026-04-27 04:26 | 40.91151 | -94.81383 | 18816 ft | 406 kts | 121° |
| 2026-04-27 04:26 | 40.89916 | -94.78026 | 19125 ft | 408 kts | 121° |
| 2026-04-27 04:26 | 40.88672 | -94.74638 | 19439 ft | 411 kts | 121° |
| 2026-04-27 04:27 | 40.87429 | -94.71257 | 19792 ft | 411 kts | 121° |
| 2026-04-27 04:27 | 40.86182 | -94.67875 | 20083 ft | 414 kts | 121° |
| 2026-04-27 04:27 | 40.84929 | -94.64467 | 20402 ft | 415 kts | 120° |
| 2026-04-27 04:27 | 40.83668 | -94.61052 | 20720 ft | 416 kts | 121° |
| 2026-04-27 04:28 | 40.82406 | -94.57632 | 21004 ft | 418 kts | 121° |
| 2026-04-27 04:28 | 40.81110 | -94.54132 | 21237 ft | 422 kts | 121° |
| 2026-04-27 04:28 | 40.79841 | -94.50702 | 21607 ft | 421 kts | 121° |
| 2026-04-27 04:28 | 40.78550 | -94.47229 | 21842 ft | 424 kts | 121° |
| 2026-04-27 04:29 | 40.77259 | -94.43740 | 22114 ft | 426 kts | 121° |
| 2026-04-27 04:29 | 40.75941 | -94.40194 | 22351 ft | 429 kts | 121° |
| 2026-04-27 04:29 | 40.74643 | -94.36703 | 22705 ft | 428 kts | 121° |
| 2026-04-27 04:29 | 40.73317 | -94.33159 | 22950 ft | 430 kts | 121° |
| 2026-04-27 04:30 | 40.72008 | -94.29631 | 23227 ft | 431 kts | 122° |
| 2026-04-27 04:30 | 40.70679 | -94.26080 | 23418 ft | 434 kts | 121° |
| 2026-04-27 04:30 | 40.70262 | -94.24971 | 23486 ft | 435 kts | 121° |
| 2026-04-27 04:30 | 40.69665 | -94.23373 | 23748 ft | 432 kts | 121° |
| 2026-04-27 04:31 | 40.68361 | -94.19872 | 24292 ft | 426 kts | 121° |
| 2026-04-27 04:31 | 40.67044 | -94.16368 | 24469 ft | 428 kts | 121° |
| 2026-04-27 04:31 | 40.65725 | -94.12852 | 24683 ft | 429 kts | 121° |
| 2026-04-27 04:31 | 40.64400 | -94.09320 | 24717 ft | 433 kts | 122° |
| 2026-04-27 04:32 | 40.63062 | -94.05765 | 24714 ft | 438 kts | 121° |
| 2026-04-27 04:32 | 40.61710 | -94.02172 | 24743 ft | 441 kts | 122° |
| 2026-04-27 04:32 | 40.60342 | -93.98537 | 24752 ft | 445 kts | 122° |
| 2026-04-27 04:32 | 40.59026 | -93.94876 | 24764 ft | 452 kts | 118° |
| 2026-04-27 04:33 | 40.57804 | -93.91064 | 24791 ft | 453 kts | 118° |
| 2026-04-27 04:33 | 40.56552 | -93.87259 | 24780 ft | 453 kts | 118° |
| 2026-04-27 04:33 | 40.55307 | -93.83471 | 24779 ft | 453 kts | 118° |
| 2026-04-27 04:33 | 40.54051 | -93.79655 | 24792 ft | 454 kts | 118° |
| 2026-04-27 04:34 | 40.52798 | -93.75847 | 24784 ft | 454 kts | 118° |
| 2026-04-27 04:34 | 40.51547 | -93.72058 | 24790 ft | 452 kts | 118° |
| 2026-04-27 04:34 | 40.50310 | -93.68318 | 24789 ft | 455 kts | 118° |
| 2026-04-27 04:34 | 40.49058 | -93.64535 | 24779 ft | 451 kts | 118° |
| 2026-04-27 04:35 | 40.47803 | -93.60747 | 24792 ft | 450 kts | 118° |
| 2026-04-27 04:35 | 40.46544 | -93.56959 | 24794 ft | 452 kts | 118° |
| 2026-04-27 04:35 | 40.45293 | -93.53196 | 24787 ft | 451 kts | 118° |
| 2026-04-27 04:35 | 40.44037 | -93.49419 | 24798 ft | 453 kts | 118° |
| 2026-04-27 04:36 | 40.42789 | -93.45664 | 24787 ft | 446 kts | 118° |
| 2026-04-27 04:36 | 40.41556 | -93.41975 | 24791 ft | 450 kts | 118° |
| 2026-04-27 04:36 | 40.40301 | -93.38224 | 24790 ft | 451 kts | 118° |
| 2026-04-27 04:36 | 40.39036 | -93.34440 | 24800 ft | 450 kts | 119° |
| 2026-04-27 04:37 | 40.37782 | -93.30697 | 24779 ft | 450 kts | 119° |
| 2026-04-27 04:37 | 40.36525 | -93.26955 | 24789 ft | 451 kts | 119° |
| 2026-04-27 04:37 | 40.35275 | -93.23228 | 24783 ft | 448 kts | 119° |
| 2026-04-27 04:37 | 40.34018 | -93.19495 | 24784 ft | 448 kts | 119° |
| 2026-04-27 04:38 | 40.32762 | -93.15765 | 24785 ft | 447 kts | 118° |
| 2026-04-27 04:38 | 40.31507 | -93.12044 | 24786 ft | 448 kts | 119° |
| 2026-04-27 04:38 | 40.30245 | -93.08299 | 24788 ft | 447 kts | 119° |
| 2026-04-27 04:38 | 40.28977 | -93.04572 | 24790 ft | 448 kts | 119° |
| 2026-04-27 04:39 | 40.27716 | -93.00828 | 24791 ft | 446 kts | 119° |
| 2026-04-27 04:39 | 40.26461 | -92.97140 | 24792 ft | 446 kts | 118° |
| 2026-04-27 04:39 | 40.25200 | -92.93417 | 24803 ft | 451 kts | 118° |
| 2026-04-27 04:39 | 40.23927 | -92.89674 | 24789 ft | 450 kts | 118° |
| 2026-04-27 04:40 | 40.22657 | -92.85944 | 24802 ft | 444 kts | 118° |
| 2026-04-27 04:40 | 40.21405 | -92.82275 | 24799 ft | 447 kts | 118° |
| 2026-04-27 04:40 | 40.20135 | -92.78548 | 24806 ft | 451 kts | 118° |
| 2026-04-27 04:40 | 40.18843 | -92.74778 | 24805 ft | 456 kts | 118° |
| 2026-04-27 04:41 | 40.17560 | -92.71029 | 24823 ft | 460 kts | 118° |
| 2026-04-27 04:41 | 40.16246 | -92.67199 | 24832 ft | 464 kts | 118° |
| 2026-04-27 04:41 | 40.14921 | -92.63342 | 24830 ft | 469 kts | 118° |
| 2026-04-27 04:41 | 40.13580 | -92.59421 | 24831 ft | 473 kts | 118° |
| 2026-04-27 04:42 | 40.12133 | -92.55625 | 24816 ft | 455 kts | 124° |
| 2026-04-27 04:42 | 40.10605 | -92.52166 | 24813 ft | 434 kts | 123° |
| 2026-04-27 04:42 | 40.09150 | -92.48733 | 24835 ft | 434 kts | 123° |
| 2026-04-27 04:42 | 40.07661 | -92.45232 | 24839 ft | 440 kts | 123° |
| 2026-04-27 04:43 | 40.06188 | -92.41733 | 24848 ft | 444 kts | 123° |
| 2026-04-27 04:43 | 40.04694 | -92.38187 | 24832 ft | 449 kts | 123° |
| 2026-04-27 04:43 | 40.03195 | -92.34630 | 24834 ft | 448 kts | 123° |
| 2026-04-27 04:43 | 40.01707 | -92.31095 | 24815 ft | 445 kts | 123° |
| 2026-04-27 04:44 | 40.00220 | -92.27572 | 24814 ft | 446 kts | 123° |
| 2026-04-27 04:44 | 39.98723 | -92.24036 | 24822 ft | 444 kts | 123° |
| 2026-04-27 04:44 | 39.97239 | -92.20522 | 24816 ft | 445 kts | 123° |
| 2026-04-27 04:44 | 39.95742 | -92.16991 | 24818 ft | 445 kts | 123° |
| 2026-04-27 04:45 | 39.94249 | -92.13469 | 24823 ft | 447 kts | 123° |
| 2026-04-27 04:45 | 39.92754 | -92.09946 | 24821 ft | 446 kts | 123° |
| 2026-04-27 04:45 | 39.91254 | -92.06412 | 24816 ft | 447 kts | 123° |
| 2026-04-27 04:45 | 39.89747 | -92.02876 | 24827 ft | 445 kts | 122° |
| 2026-04-27 04:46 | 39.88264 | -91.99393 | 24829 ft | 445 kts | 123° |
| 2026-04-27 04:46 | 39.86772 | -91.95888 | 24828 ft | 444 kts | 123° |
| 2026-04-27 04:46 | 39.85258 | -91.92351 | 24846 ft | 448 kts | 123° |
| 2026-04-27 04:46 | 39.83748 | -91.88814 | 24831 ft | 446 kts | 122° |
| 2026-04-27 04:47 | 39.82247 | -91.85303 | 24841 ft | 447 kts | 123° |
| 2026-04-27 04:47 | 39.80739 | -91.81782 | 24859 ft | 446 kts | 122° |
| 2026-04-27 04:47 | 39.79241 | -91.78285 | 24836 ft | 442 kts | 123° |
| 2026-04-27 04:47 | 39.77774 | -91.74864 | 24716 ft | 420 kts | 123° |
| 2026-04-27 04:48 | 39.76404 | -91.71664 | 24725 ft | 398 kts | 123° |
| 2026-04-27 04:48 | 39.75052 | -91.68536 | 24732 ft | 398 kts | 123° |
| 2026-04-27 04:48 | 39.73701 | -91.65405 | 24719 ft | 403 kts | 123° |
| 2026-04-27 04:48 | 39.72316 | -91.62199 | 24584 ft | 412 kts | 123° |
| 2026-04-27 04:49 | 39.70910 | -91.58934 | 24277 ft | 410 kts | 123° |
| 2026-04-27 04:49 | 39.69528 | -91.55730 | 23855 ft | 405 kts | 123° |
| 2026-04-27 04:49 | 39.68161 | -91.52576 | 23360 ft | 403 kts | 123° |
| 2026-04-27 04:49 | 39.66795 | -91.49425 | 22821 ft | 400 kts | 123° |
| 2026-04-27 04:50 | 39.65446 | -91.46307 | 22282 ft | 395 kts | 122° |
| 2026-04-27 04:50 | 39.64125 | -91.43258 | 21757 ft | 391 kts | 122° |
| 2026-04-27 04:50 | 39.62803 | -91.40215 | 21222 ft | 387 kts | 123° |
| 2026-04-27 04:50 | 39.61479 | -91.37167 | 20681 ft | 382 kts | 123° |
| 2026-04-27 04:51 | 39.60197 | -91.34226 | 20164 ft | 378 kts | 123° |
| 2026-04-27 04:51 | 39.58907 | -91.31263 | 19757 ft | 372 kts | 123° |
| 2026-04-27 04:51 | 39.57633 | -91.28341 | 19381 ft | 374 kts | 123° |
| 2026-04-27 04:51 | 39.56380 | -91.25465 | 19003 ft | 372 kts | 123° |
| 2026-04-27 04:52 | 39.55108 | -91.22547 | 18616 ft | 369 kts | 123° |
| 2026-04-27 04:52 | 39.53842 | -91.19656 | 18232 ft | 366 kts | 123° |
| 2026-04-27 04:52 | 39.52600 | -91.16803 | 17849 ft | 362 kts | 123° |
| 2026-04-27 04:52 | 39.51375 | -91.14015 | 17484 ft | 359 kts | 123° |
| 2026-04-27 04:53 | 39.50157 | -91.11225 | 17133 ft | 357 kts | 123° |
| 2026-04-27 04:53 | 39.48944 | -91.08457 | 16775 ft | 353 kts | 124° |
| 2026-04-27 04:53 | 39.47735 | -91.05701 | 16411 ft | 351 kts | 123° |
| 2026-04-27 04:53 | 39.46543 | -91.02982 | 16043 ft | 346 kts | 124° |
| 2026-04-27 04:54 | 39.45357 | -91.00277 | 15680 ft | 344 kts | 124° |
| 2026-04-27 04:54 | 39.44170 | -90.97588 | 15314 ft | 341 kts | 124° |
| 2026-04-27 04:54 | 39.42983 | -90.94963 | 14947 ft | 337 kts | 129° |
| 2026-04-27 04:54 | 39.41466 | -90.92777 | 14597 ft | 327 kts | 146° |
| 2026-04-27 04:55 | 39.39602 | -90.91187 | 14268 ft | 319 kts | 153° |
| 2026-04-27 04:55 | 39.37731 | -90.89639 | 13940 ft | 319 kts | 152° |
| 2026-04-27 04:55 | 39.35870 | -90.88111 | 13593 ft | 315 kts | 152° |
| 2026-04-27 04:55 | 39.34009 | -90.86603 | 13260 ft | 314 kts | 152° |
| 2026-04-27 04:56 | 39.32172 | -90.85118 | 12926 ft | 310 kts | 152° |
| 2026-04-27 04:56 | 39.30299 | -90.83846 | 12586 ft | 299 kts | 164° |
| 2026-04-27 04:56 | 39.28335 | -90.83204 | 12272 ft | 288 kts | 169° |
| 2026-04-27 04:56 | 39.26423 | -90.82574 | 11922 ft | 277 kts | 168° |
| 2026-04-27 04:57 | 39.24577 | -90.81977 | 11732 ft | 273 kts | 169° |
| 2026-04-27 04:57 | 39.22719 | -90.81392 | 11420 ft | 274 kts | 168° |
| 2026-04-27 04:57 | 39.20878 | -90.80810 | 11145 ft | 273 kts | 168° |
| 2026-04-27 04:57 | 39.19062 | -90.80186 | 10864 ft | 266 kts | 167° |
| 2026-04-27 04:58 | 39.17288 | -90.79573 | 10558 ft | 259 kts | 167° |
| 2026-04-27 04:58 | 39.15585 | -90.78989 | 10292 ft | 252 kts | 167° |
| 2026-04-27 04:58 | 39.13920 | -90.78416 | 10036 ft | 244 kts | 167° |
| 2026-04-27 04:58 | 39.12276 | -90.77856 | 9786 ft | 243 kts | 167° |
| 2026-04-27 04:59 | 39.10658 | -90.77309 | 9533 ft | 243 kts | 167° |
| 2026-04-27 04:59 | 39.09038 | -90.76659 | 9266 ft | 244 kts | 156° |
| 2026-04-27 04:59 | 39.07592 | -90.75469 | 9026 ft | 245 kts | 150° |
| 2026-04-27 04:59 | 39.06111 | -90.74406 | 8773 ft | 244 kts | 155° |
| 2026-04-27 05:00 | 39.04659 | -90.73360 | 8513 ft | 241 kts | 153° |
| 2026-04-27 05:00 | 39.03164 | -90.72282 | 8126 ft | 245 kts | 154° |
| 2026-04-27 05:00 | 39.01701 | -90.71233 | 7770 ft | 242 kts | 153° |
| 2026-04-27 05:00 | 39.00235 | -90.70183 | 7421 ft | 239 kts | 153° |
| 2026-04-27 05:01 | 38.98793 | -90.69152 | 7104 ft | 235 kts | 154° |
| 2026-04-27 05:01 | 38.97374 | -90.68139 | 6797 ft | 231 kts | 154° |
| 2026-04-27 05:01 | 38.95987 | -90.67148 | 6490 ft | 226 kts | 154° |
| 2026-04-27 05:01 | 38.94635 | -90.66181 | 6236 ft | 220 kts | 154° |
| 2026-04-27 05:02 | 38.93325 | -90.65249 | 5882 ft | 209 kts | 154° |
| 2026-04-27 05:02 | 38.92119 | -90.64387 | 5703 ft | 189 kts | 154° |
| 2026-04-27 05:02 | 38.89886 | -90.62798 | 5467 ft | 183 kts | 154° |
| 2026-04-27 05:03 | 38.88775 | -90.62008 | 5264 ft | 180 kts | 154° |
| 2026-04-27 05:03 | 38.87716 | -90.61255 | 5086 ft | 174 kts | 153° |
| 2026-04-27 05:03 | 38.86818 | -90.60211 | 4809 ft | 174 kts | 129° |
| 2026-04-27 05:03 | 38.86213 | -90.58905 | 4570 ft | 165 kts | 128° |
| 2026-04-27 05:04 | 38.85594 | -90.57680 | 4383 ft | 165 kts | 129° |
| 2026-04-27 05:04 | 38.84977 | -90.56436 | 4159 ft | 167 kts | 129° |
| 2026-04-27 05:04 | 38.84367 | -90.55200 | 3920 ft | 162 kts | 129° |
| 2026-04-27 05:04 | 38.83764 | -90.53987 | 3700 ft | 162 kts | 128° |
| 2026-04-27 05:05 | 38.83158 | -90.52760 | 3462 ft | 160 kts | 128° |
| 2026-04-27 05:05 | 38.82585 | -90.51582 | 3238 ft | 154 kts | 127° |
| 2026-04-27 05:05 | 38.82080 | -90.50373 | 2974 ft | 152 kts | 124° |
| 2026-04-27 05:05 | 38.81608 | -90.49174 | 2697 ft | 148 kts | 125° |
| 2026-04-27 05:06 | 38.81118 | -90.48093 | 2529 ft | 135 kts | 128° |
| 2026-04-27 05:06 | 38.80603 | -90.47113 | 2187 ft | 134 kts | 129° |
| 2026-04-27 05:06 | 38.80085 | -90.46156 | 1928 ft | 126 kts | 130° |
| 2026-04-27 05:06 | 38.79572 | -90.45265 | 1631 ft | 126 kts | 130° |
| 2026-04-27 05:07 | 38.79075 | -90.44338 | 1447 ft | 125 kts | 125° |
| 2026-04-27 05:07 | 38.78588 | -90.43375 | 1222 ft | 136 kts | 127° |
| 2026-04-27 05:07 | 38.78052 | -90.42351 | 1220 ft | 141 kts | 125° |
| 2026-04-27 05:07 | 38.77557 | -90.41332 | 1118 ft | 130 kts | 124° |
| 2026-04-27 05:08 | 38.77049 | -90.40350 | 979 ft | 137 kts | 124° |
| 2026-04-27 05:08 | 38.76528 | -90.39290 | 881 ft | 140 kts | 124° |
| 2026-04-27 05:08 | 38.76000 | -90.38274 | 707 ft | 133 kts | 124° |
| 2026-04-27 05:08 | 38.75515 | -90.37296 | 611 ft | 128 kts | 123° |
| 2026-04-27 05:09 | 38.75035 | -90.36352 | 548 ft | 124 kts | 122° |
| 2026-04-27 05:09 | 38.74610 | -90.35479 | 554 ft | 101 kts | 122° |
| 2026-04-27 05:09 | 38.74303 | -90.34856 | 577 ft | 62 kts | 122° |
| 2026-04-27 05:09 | 38.74110 | -90.34465 | 602 ft | 49 kts | 122° |
| 2026-04-27 05:10 | 38.73967 | -90.34173 | 611 ft | 31 kts | 122° |
| 2026-04-27 05:10 | 38.73877 | -90.34013 | 608 ft | 15 kts | 152° |
| 2026-04-27 05:10 | 38.73839 | -90.34010 | 608 ft | 0 kts | 193° |
| 2026-04-27 05:10 | 38.73807 | -90.34025 | 608 ft | 9 kts | 204° |
| 2026-04-27 05:11 | 38.73760 | -90.34071 | 609 ft | 7 kts | 241° |
| 2026-04-27 05:11 | 38.73764 | -90.34146 | 610 ft | 10 kts | 292° |
| 2026-04-27 05:11 | 38.73807 | -90.34244 | 609 ft | 15 kts | 301° |
| 2026-04-27 05:11 | 38.73868 | -90.34366 | 606 ft | 16 kts | 301° |
| 2026-04-27 05:12 | 38.73917 | -90.34467 | 601 ft | 15 kts | 302° |
| 2026-04-27 05:12 | 38.73904 | -90.34564 | 595 ft | 12 kts | 219° |
| 2026-04-27 05:12 | 38.73881 | -90.34584 | 594 ft | 0 kts | 212° |
| 2026-04-27 05:13 | 38.73858 | -90.34602 | 593 ft | 11 kts | 212° |
| 2026-04-27 05:13 | 38.73760 | -90.34681 | 589 ft | 17 kts | 211° |
| 2026-04-27 05:13 | 38.73711 | -90.34769 | 584 ft | 16 kts | 276° |
| 2026-04-27 05:13 | 38.73761 | -90.34900 | 576 ft | 18 kts | 300° |
| 2026-04-27 05:14 | 38.73827 | -90.35033 | 568 ft | 18 kts | 304° |
| 2026-04-27 05:14 | 38.73886 | -90.35156 | 562 ft | 17 kts | 302° |
| 2026-04-27 05:14 | 38.73960 | -90.35302 | 558 ft | 21 kts | 302° |
| 2026-04-27 05:14 | 38.74037 | -90.35458 | 556 ft | 21 kts | 304° |
| 2026-04-27 05:15 | 38.74093 | -90.35571 | 555 ft | 10 kts | 302° |
| 2026-04-27 05:15 | 38.74143 | -90.35670 | 553 ft | 16 kts | 301° |
| 2026-04-27 05:15 | 38.74206 | -90.35796 | 553 ft | 18 kts | 305° |
| 2026-04-27 05:15 | 38.74256 | -90.35898 | 553 ft | 5 kts | 301° |
| 2026-04-27 05:16 | 38.74265 | -90.35917 | 553 ft | 4 kts | 301° |
| 2026-04-27 05:16 | 38.74276 | -90.35989 | 553 ft | 5 kts | 256° |
| 2026-04-27 05:16 | 38.74265 | -90.36034 | 553 ft | 4 kts | 266° |
| 2026-04-27 05:16 | 38.74266 | -90.36060 | 553 ft | 1 kts | 283° |
| 2026-04-27 05:17 | 38.74276 | -90.36092 | 553 ft | 5 kts | 291° |
| 2026-04-27 05:17 | 38.74262 | -90.36144 | 554 ft | 6 kts | 221° |
| 2026-04-27 05:17 | 38.74252 | -90.36154 | 555 ft | 2 kts | 215° |
| 2026-04-27 05:17 | 38.74244 | -90.36161 | 555 ft | 1 kts | 219° |
| 2026-04-27 05:18 | 38.74236 | -90.36169 | 555 ft | 0 kts | 213° |